Time;durP1;ratioP1;P1;durP2;ratioP2;P2;SDS_P1;SDS_P2;PMS_P1;PMS_P2;Temp;Humidity;BMP_temperature;BMP_pressure;BME280_temperature;BME280_humidity;BME280_pressure;Samples;Min_cycle;Max_cycle;Signal;HPM_P1;HPM_P2
2020/12/04 00:00:48;;;;;;;9.52;6.70;;;5.60;84.60;;;;;;5081465;28;20457;-90
2020/12/04 00:03:14;;;;;;;9.13;6.32;;;5.60;84.50;;;;;;5080567;28;20473;-90
2020/12/04 00:05:40;;;;;;;10.80;7.35;;;5.60;84.50;;;;;;5080901;28;20020;-90
2020/12/04 00:08:06;;;;;;;9.38;7.20;;;5.60;84.00;;;;;;5099299;28;20457;-90
2020/12/04 00:10:32;;;;;;;8.80;6.63;;;5.60;84.10;;;;;;5080540;28;20097;-89
2020/12/04 00:12:58;;;;;;;10.00;7.40;;;5.60;84.20;;;;;;5080834;28;20445;-91
2020/12/04 00:15:24;;;;;;;9.48;7.40;;;5.60;84.00;;;;;;5080709;28;20055;-90
2020/12/04 00:17:50;;;;;;;9.23;6.57;;;5.60;83.90;;;;;;5099153;28;20474;-91
2020/12/04 00:23:38;;;;;;;8.27;5.78;;;5.60;83.80;;;;;;5098301;28;20031;-91
2020/12/04 00:26:04;;;;;;;7.22;5.68;;;5.70;83.80;;;;;;5080639;28;20377;-88
2020/12/04 00:28:30;;;;;;;9.90;7.18;;;5.70;83.70;;;;;;5080437;28;20024;-89
2020/12/04 00:30:56;;;;;;;8.43;6.32;;;5.80;83.40;;;;;;5097508;28;20434;-90
2020/12/04 00:33:23;;;;;;;7.93;5.93;;;5.60;83.20;;;;;;5079247;28;20036;-89
2020/12/04 00:35:49;;;;;;;8.88;6.50;;;5.70;83.20;;;;;;5097318;28;20535;-89
2020/12/04 00:38:15;;;;;;;8.80;6.50;;;5.70;83.00;;;;;;5097267;28;20034;-89
2020/12/04 00:40:41;;;;;;;9.13;6.43;;;5.70;83.10;;;;;;5097316;28;20453;-91
2020/12/04 00:43:07;;;;;;;7.80;6.00;;;5.70;83.00;;;;;;5097112;28;20464;-91
2020/12/04 00:45:33;;;;;;;9.52;6.80;;;5.60;83.00;;;;;;5097444;28;20016;-90
2020/12/04 00:47:59;;;;;;;8.07;6.40;;;5.70;83.00;;;;;;5097345;28;20450;-90
2020/12/04 00:50:25;;;;;;;8.65;6.25;;;5.60;82.80;;;;;;5078717;28;20016;-90
2020/12/04 00:52:53;;;;;;;9.23;6.50;;;5.70;82.90;;;;;;5079006;28;20020;-89
2020/12/04 00:55:19;;;;;;;8.32;6.57;;;5.70;82.90;;;;;;5095947;28;20399;-90
2020/12/04 00:57:45;;;;;;;9.13;6.65;;;5.70;82.90;;;;;;5097208;28;20012;-90
2020/12/04 01:00:11;;;;;;;9.88;6.38;;;5.60;82.90;;;;;;5097529;28;20095;-90
2020/12/04 01:02:37;;;;;;;8.00;5.90;;;5.60;83.00;;;;;;5096443;28;20499;-89
2020/12/04 01:05:05;;;;;;;9.38;6.47;;;5.60;83.00;;;;;;5096354;28;20469;-89
2020/12/04 01:07:31;;;;;;;8.48;6.32;;;5.60;83.10;;;;;;5096621;28;20013;-89
2020/12/04 01:09:57;;;;;;;7.80;5.75;;;5.70;83.20;;;;;;5096933;28;20441;-89
2020/12/04 01:12:22;;;;;;;8.90;7.03;;;5.50;83.10;;;;;;5096542;28;20012;-89
2020/12/04 01:14:48;;;;;;;9.82;6.70;;;5.70;83.00;;;;;;5077983;28;20016;-89
2020/12/04 01:17:15;;;;;;;7.85;6.07;;;5.60;83.00;;;;;;5098756;28;20521;-90
2020/12/04 01:19:41;;;;;;;10.60;7.50;;;5.70;83.20;;;;;;5120389;28;20004;-90
2020/12/04 01:22:08;;;;;;;8.38;6.32;;;5.60;83.00;;;;;;5114120;28;20036;-89
2020/12/04 01:24:34;;;;;;;9.18;6.55;;;5.70;83.10;;;;;;5078591;28;20408;-90
2020/12/04 01:27:00;;;;;;;8.70;6.47;;;5.70;83.00;;;;;;5097372;28;20028;-89
2020/12/04 01:29:26;;;;;;;7.60;6.03;;;5.70;82.70;;;;;;5098235;28;20020;-90
2020/12/04 01:31:52;;;;;;;9.23;7.20;;;5.70;82.80;;;;;;5097222;28;20016;-89
2020/12/04 01:34:19;;;;;;;8.30;5.40;;;5.70;82.90;;;;;;5096108;28;20484;-89
2020/12/04 01:36:45;;;;;;;8.32;6.13;;;5.70;82.90;;;;;;5077966;28;20495;-90
2020/12/04 01:39:12;;;;;;;8.15;6.13;;;5.60;82.70;;;;;;5096274;28;20417;-90
2020/12/04 01:41:37;;;;;;;7.85;6.18;;;5.60;82.70;;;;;;5096000;28;20342;-90
2020/12/04 01:44:04;;;;;;;7.93;5.93;;;5.60;82.90;;;;;;5078408;28;20035;-89
2020/12/04 01:46:30;;;;;;;8.38;6.30;;;5.60;82.90;;;;;;5078114;28;20455;-90
2020/12/04 01:48:56;;;;;;;8.40;6.20;;;5.60;83.00;;;;;;5096616;28;20453;-89
2020/12/04 01:51:24;;;;;;;6.78;5.20;;;5.60;83.00;;;;;;5096139;28;20008;-88
2020/12/04 01:53:51;;;;;;;7.88;6.10;;;5.60;83.10;;;;;;5095544;28;20530;-88
2020/12/04 01:56:17;;;;;;;9.32;6.68;;;5.70;83.10;;;;;;5077415;28;20052;-87
2020/12/04 01:58:43;;;;;;;8.15;6.20;;;5.60;83.10;;;;;;5095532;28;20027;-89
2020/12/04 02:01:16;;;;;;;7.18;5.38;;;5.70;83.10;;;;;;5095867;28;20060;-89
2020/12/04 02:03:43;;;;;;;8.30;6.22;;;5.60;83.20;;;;;;5095620;28;20472;-90
2020/12/04 02:06:27;;;;;;;7.72;5.72;;;5.60;83.00;;;;;;5095365;28;20019;-90
2020/12/04 02:09:07;;;;;;;6.97;5.70;;;5.70;83.20;;;;;;5095390;28;20079;-89
2020/12/04 02:11:35;;;;;;;7.03;5.53;;;5.70;83.20;;;;;;5077499;28;20484;-88
2020/12/04 02:14:02;;;;;;;7.10;5.50;;;5.60;83.20;;;;;;5095454;28;20361;-89
2020/12/04 02:16:29;;;;;;;7.30;5.78;;;5.60;83.40;;;;;;5095322;28;20457;-88
2020/12/04 02:22:17;;;;;;;8.10;6.20;;;5.60;83.70;;;;;;5095272;28;20050;-89
2020/12/04 02:24:43;;;;;;;8.88;6.10;;;5.60;83.80;;;;;;5076882;28;20484;-88
2020/12/04 02:27:09;;;;;;;7.40;5.45;;;5.60;84.00;;;;;;5094885;28;20396;-88
2020/12/04 02:29:39;;;;;;;8.23;5.90;;;5.60;84.30;;;;;;5076718;28;20483;-89
2020/12/04 02:32:10;;;;;;;7.72;5.80;;;5.60;84.40;;;;;;5077206;28;20491;-89
2020/12/04 02:34:36;;;;;;;7.22;5.60;;;5.60;84.50;;;;;;5095078;28;20483;-89
2020/12/04 02:37:02;;;;;;;8.00;5.65;;;5.60;84.60;;;;;;5094954;28;20012;-89
2020/12/04 02:39:28;;;;;;;7.00;5.30;;;5.60;84.60;;;;;;5095024;28;20012;-88
2020/12/04 02:41:54;;;;;;;7.43;5.45;;;5.60;84.80;;;;;;5094717;28;20361;-89
2020/12/04 02:44:20;;;;;;;7.68;5.97;;;5.60;84.90;;;;;;5095018;28;20040;-89
2020/12/04 02:46:47;;;;;;;7.95;5.65;;;5.50;85.00;;;;;;5077644;28;20020;-88
2020/12/04 02:49:13;;;;;;;7.47;5.57;;;5.50;85.10;;;;;;5096016;28;20398;-89
2020/12/04 02:51:44;;;;;;;7.00;5.65;;;5.50;85.30;;;;;;5117699;28;20038;-89
2020/12/04 02:54:11;;;;;;;7.45;5.28;;;5.50;85.50;;;;;;5096221;28;20457;-88
2020/12/04 02:56:37;;;;;;;6.47;4.78;;;5.50;85.60;;;;;;5096878;28;20391;-89
2020/12/04 03:02:26;;;;;;;6.72;5.00;;;5.50;85.70;;;;;;5094785;28;20031;-89
2020/12/04 03:04:52;;;;;;;7.15;5.40;;;5.50;85.60;;;;;;5077074;28;20072;-89
2020/12/04 03:07:18;;;;;;;6.30;4.35;;;5.50;85.60;;;;;;5094761;28;20432;-90
2020/12/04 03:09:44;;;;;;;7.28;5.00;;;5.50;85.60;;;;;;5094482;28;20047;-89
2020/12/04 03:12:11;;;;;;;7.47;5.30;;;5.50;85.60;;;;;;5094820;28;20393;-89
2020/12/04 03:14:37;;;;;;;7.05;5.10;;;5.60;85.50;;;;;;5094803;28;20458;-88
2020/12/04 03:17:03;;;;;;;6.05;4.75;;;5.60;85.50;;;;;;5094532;28;20020;-88
2020/12/04 03:19:29;;;;;;;7.95;5.43;;;5.60;85.40;;;;;;5097564;28;20432;-88
2020/12/04 03:21:55;;;;;;;7.35;5.32;;;5.60;85.30;;;;;;5098691;28;20046;-89
2020/12/04 03:24:21;;;;;;;5.97;4.65;;;5.60;85.40;;;;;;5098760;28;20020;-89
2020/12/04 03:26:47;;;;;;;7.35;5.22;;;5.60;85.40;;;;;;5098860;28;20008;-89
2020/12/04 03:29:13;;;;;;;7.25;5.50;;;5.60;85.40;;;;;;5098553;28;20095;-89
2020/12/04 03:31:39;;;;;;;6.57;4.75;;;5.60;85.40;;;;;;5098432;28;20012;-89
2020/12/04 03:34:05;;;;;;;7.68;5.50;;;5.60;85.40;;;;;;5098775;28;20041;-89
2020/12/04 03:36:31;;;;;;;6.97;5.50;;;5.50;85.30;;;;;;5080693;28;20013;-90
2020/12/04 03:38:56;;;;;;;6.90;5.25;;;5.50;85.40;;;;;;5098814;28;20043;-89
2020/12/04 03:41:22;;;;;;;7.90;5.75;;;5.60;85.50;;;;;;5080141;28;20028;-87
2020/12/04 03:43:48;;;;;;;7.43;5.00;;;5.60;85.60;;;;;;5100596;28;20035;-89
2020/12/04 03:46:14;;;;;;;7.75;5.88;;;5.60;85.60;;;;;;5104041;28;20096;-90
2020/12/04 03:48:42;;;;;;;5.80;4.45;;;5.50;85.50;;;;;;5104639;28;20016;-90
2020/12/04 03:54:30;;;;;;;6.80;4.78;;;5.60;85.40;;;;;;5098318;28;20069;-89
2020/12/04 03:56:56;;;;;;;7.72;5.53;;;5.60;85.40;;;;;;5097862;28;20452;-89
2020/12/04 03:59:22;;;;;;;5.90;4.43;;;5.70;85.30;;;;;;5082546;28;20141;-89
2020/12/04 04:01:48;;;;;;;7.40;5.25;;;5.60;85.20;;;;;;5100311;28;20107;-89
2020/12/04 04:04:14;;;;;;;6.03;4.25;;;5.60;84.90;;;;;;5101784;28;20385;-90
2020/12/04 04:06:41;;;;;;;5.75;4.53;;;5.60;85.00;;;;;;5081786;28;20088;-90
2020/12/04 04:09:06;;;;;;;6.25;4.50;;;5.60;85.50;;;;;;5098184;28;20368;-90
2020/12/04 04:11:32;;;;;;;6.45;4.70;;;5.60;84.80;;;;;;5100052;28;20016;-90
2020/12/04 04:13:58;;;;;;;6.63;5.18;;;5.70;84.70;;;;;;5099412;28;20023;-91
2020/12/04 04:16:24;;;;;;;6.63;4.70;;;5.70;84.80;;;;;;5080154;28;20523;-90
2020/12/04 04:18:51;;;;;;;7.25;5.78;;;5.60;84.80;;;;;;5097991;28;20450;-89
2020/12/04 04:21:17;;;;;;;8.65;6.07;;;5.70;84.80;;;;;;5100190;28;20035;-90
2020/12/04 04:23:43;;;;;;;6.78;4.95;;;5.70;85.00;;;;;;5116549;28;20046;-91
2020/12/04 04:26:10;;;;;;;5.88;4.65;;;5.70;85.10;;;;;;5120776;28;20080;-89
2020/12/04 04:28:36;;;;;;;6.60;4.88;;;5.70;85.20;;;;;;5109548;28;20020;-90
2020/12/04 04:31:02;;;;;;;7.43;5.03;;;5.60;85.90;;;;;;5097203;28;20449;-89
2020/12/04 04:33:28;;;;;;;4.85;3.80;;;5.60;85.40;;;;;;5097772;28;20012;-89
2020/12/04 04:35:54;;;;;;;5.53;4.07;;;5.70;85.50;;;;;;5097730;28;20450;-90
2020/12/04 04:38:20;;;;;;;7.28;5.18;;;5.70;85.50;;;;;;5097449;28;20365;-90
2020/12/04 04:40:46;;;;;;;7.00;5.22;;;5.70;85.50;;;;;;5097655;28;20330;-89
2020/12/04 04:43:14;;;;;;;6.18;4.35;;;5.70;85.40;;;;;;5097285;28;20081;-90
2020/12/04 04:45:45;;;;;;;5.55;4.38;;;5.70;85.40;;;;;;5097287;28;20449;-90
2020/12/04 04:48:18;;;;;;;5.53;4.25;;;5.70;85.50;;;;;;5097603;28;20361;-90
2020/12/04 04:50:44;;;;;;;6.70;5.13;;;5.80;85.40;;;;;;5097178;28;20463;-92
2020/12/04 04:53:11;;;;;;;5.38;4.15;;;5.80;85.20;;;;;;5079046;28;20458;-89
2020/12/04 04:55:43;;;;;;;6.25;5.03;;;5.80;85.10;;;;;;5079319;28;20620;-89
2020/12/04 04:58:12;;;;;;;6.07;5.05;;;5.80;85.00;;;;;;5097184;28;20441;-88
2020/12/04 05:00:39;;;;;;;6.13;4.60;;;5.70;84.80;;;;;;5078761;28;20461;-90
2020/12/04 05:03:08;;;;;;;5.45;4.20;;;5.80;84.80;;;;;;5078676;28;20553;-89
2020/12/04 05:08:57;;;;;;;4.53;3.90;;;5.80;84.70;;;;;;5097310;28;20405;-89
2020/12/04 05:11:23;;;;;;;6.78;5.03;;;5.90;84.60;;;;;;5078448;28;20526;-90
2020/12/04 05:13:49;;;;;;;5.72;4.40;;;5.80;84.30;;;;;;5096451;28;20405;-89
2020/12/04 05:16:29;;;;;;;5.72;4.75;;;5.90;84.40;;;;;;5096646;28;20047;-89
2020/12/04 05:18:54;;;;;;;5.70;4.70;;;5.80;84.30;;;;;;5078427;28;20469;-88
2020/12/04 05:21:27;;;;;;;5.57;4.45;;;5.80;84.20;;;;;;5096198;28;20031;-90
2020/12/04 05:23:57;;;;;;;5.00;4.00;;;5.80;84.20;;;;;;5096240;28;20342;-90
2020/12/04 05:26:37;;;;;;;4.93;4.05;;;5.80;84.20;;;;;;5078927;28;20461;-89
2020/12/04 05:29:05;;;;;;;5.95;4.53;;;5.80;84.20;;;;;;5097257;28;20372;-88
2020/12/04 05:31:34;;;;;;;5.63;4.40;;;5.80;84.10;;;;;;5096898;28;20020;-89
2020/12/04 05:34:17;;;;;;;6.05;4.55;;;5.80;84.20;;;;;;5079003;28;20342;-91
2020/12/04 05:36:45;;;;;;;5.93;4.32;;;5.90;84.10;;;;;;5080512;28;20468;-89
2020/12/04 05:39:11;;;;;;;5.38;3.83;;;5.80;83.90;;;;;;5079701;28;20392;-89
2020/12/04 05:41:47;;;;;;;6.38;4.50;;;5.90;84.00;;;;;;5097677;28;20491;-90
2020/12/04 05:44:14;;;;;;;6.20;4.90;;;5.90;83.90;;;;;;5079513;28;20545;-89
2020/12/04 05:46:50;;;;;;;5.60;4.47;;;5.90;83.80;;;;;;5096949;28;20487;-91
2020/12/04 05:49:17;;;;;;;7.15;5.25;;;5.80;83.70;;;;;;5097805;28;20020;-91
2020/12/04 05:51:43;;;;;;;5.95;4.78;;;5.90;83.70;;;;;;5097129;28;20484;-90
2020/12/04 05:54:10;;;;;;;6.20;4.53;;;5.90;83.70;;;;;;5103174;28;20027;-90
2020/12/04 06:00:00;;;;;;;4.40;3.58;;;5.90;83.70;;;;;;5112589;28;20097;-89
2020/12/04 06:02:26;;;;;;;4.75;3.78;;;5.90;83.60;;;;;;5079479;28;20071;-90
2020/12/04 06:04:53;;;;;;;4.30;3.63;;;6.00;83.60;;;;;;5080265;28;20461;-92
2020/12/04 06:07:27;;;;;;;5.57;4.18;;;5.90;83.50;;;;;;5098202;28;20047;-90
2020/12/04 06:09:57;;;;;;;4.95;3.42;;;6.00;83.50;;;;;;5099094;28;20404;-88
2020/12/04 06:12:24;;;;;;;4.30;3.20;;;6.00;83.30;;;;;;5079338;28;20480;-89
2020/12/04 06:14:51;;;;;;;3.95;3.15;;;6.00;83.30;;;;;;5098000;28;20396;-89
2020/12/04 06:17:18;;;;;;;4.15;3.30;;;6.00;83.20;;;;;;5080147;28;20020;-89
2020/12/04 06:19:45;;;;;;;3.63;2.90;;;6.00;83.20;;;;;;5077725;28;20476;-89
2020/12/04 06:22:17;;;;;;;4.32;3.17;;;6.00;83.20;;;;;;5078187;28;20089;-90
2020/12/04 06:24:55;;;;;;;3.75;3.10;;;6.10;83.20;;;;;;5079575;28;20530;-90
2020/12/04 06:27:39;;;;;;;3.78;3.05;;;6.10;83.20;;;;;;5080059;28;20489;-90
2020/12/04 06:30:06;;;;;;;4.88;3.17;;;6.10;83.10;;;;;;5099033;28;20434;-90
2020/12/04 06:32:41;;;;;;;3.75;3.13;;;6.10;83.00;;;;;;5098168;28;20031;-90
2020/12/04 06:35:09;;;;;;;3.40;2.72;;;6.20;83.00;;;;;;5097886;28;20505;-90
2020/12/04 06:37:43;;;;;;;3.97;3.05;;;6.20;82.90;;;;;;5095878;28;20020;-89
2020/12/04 06:40:27;;;;;;;3.63;3.00;;;6.20;82.90;;;;;;5095953;28;20360;-87
2020/12/04 06:42:58;;;;;;;3.92;2.92;;;6.20;82.80;;;;;;5097228;28;20362;-90
2020/12/04 06:45:32;;;;;;;3.85;3.22;;;6.20;82.80;;;;;;5099296;28;20016;-91
2020/12/04 06:48:19;;;;;;;3.35;2.72;;;6.30;82.80;;;;;;5098099;28;20020;-91
2020/12/04 06:50:47;;;;;;;4.28;3.13;;;6.30;82.90;;;;;;5077694;28;20461;-90
2020/12/04 06:53:15;;;;;;;3.78;3.17;;;6.30;82.70;;;;;;5100066;28;20072;-91
2020/12/04 06:55:42;;;;;;;4.25;3.08;;;6.30;82.70;;;;;;5098909;28;20537;-91
2020/12/04 06:58:08;;;;;;;3.60;2.92;;;6.30;82.70;;;;;;5095272;28;20451;-90
2020/12/04 07:00:36;;;;;;;3.92;3.00;;;6.30;82.80;;;;;;5076698;28;20475;-91
2020/12/04 07:03:04;;;;;;;3.50;2.95;;;6.30;82.70;;;;;;5094793;28;20520;-91
2020/12/04 07:05:33;;;;;;;3.40;2.92;;;6.30;82.60;;;;;;5078347;28;20047;-91
2020/12/04 07:08:06;;;;;;;3.50;2.78;;;6.40;82.60;;;;;;5097443;28;20406;-92
2020/12/04 07:10:36;;;;;;;4.85;3.38;;;6.40;82.60;;;;;;5095585;28;20020;-90
2020/12/04 07:13:04;;;;;;;4.25;3.17;;;6.40;82.50;;;;;;5095495;28;20020;-91
2020/12/04 07:15:43;;;;;;;3.72;2.78;;;6.50;82.40;;;;;;5078052;28;20465;-94
2020/12/04 07:18:10;;;;;;;3.38;2.80;;;6.50;82.20;;;;;;5079856;28;20016;-90
2020/12/04 07:20:37;;;;;;;3.30;2.78;;;6.60;82.20;;;;;;5076316;28;20115;-88
2020/12/04 07:23:08;;;;;;;5.03;3.15;;;6.60;82.20;;;;;;5094700;28;20024;-89
2020/12/04 07:25:36;;;;;;;3.05;2.55;;;6.60;82.10;;;;;;5084150;28;20027;-90
2020/12/04 07:28:03;;;;;;;3.72;2.80;;;6.60;82.10;;;;;;5091389;28;20465;-87
2020/12/04 07:30:30;;;;;;;3.22;2.72;;;6.60;82.00;;;;;;5105740;28;20457;-89
2020/12/04 07:32:58;;;;;;;4.30;3.00;;;6.70;82.00;;;;;;5077183;28;20445;-88
2020/12/04 07:39:01;;;;;;;4.25;2.90;;;6.70;81.80;;;;;;5095100;28;20031;-90
2020/12/04 07:41:31;;;;;;;3.60;2.50;;;6.70;81.70;;;;;;5079199;28;20048;-91
2020/12/04 07:43:59;;;;;;;2.72;2.28;;;6.70;81.70;;;;;;5099063;28;20477;-92
2020/12/04 07:46:26;;;;;;;2.20;2.00;;;6.80;81.80;;;;;;5081616;28;20545;-92
2020/12/04 07:48:59;;;;;;;3.53;2.80;;;6.80;81.80;;;;;;5097994;28;20462;-92
2020/12/04 07:51:28;;;;;;;3.88;2.70;;;6.80;81.80;;;;;;5101505;28;20082;-93
2020/12/04 07:53:58;;;;;;;3.80;2.78;;;6.80;81.60;;;;;;5101027;28;20388;-92
2020/12/04 07:56:28;;;;;;;3.72;2.83;;;7.00;81.80;;;;;;5095142;28;20402;-90
2020/12/04 07:59:05;;;;;;;5.03;2.80;;;6.90;81.70;;;;;;5094425;28;20446;-91
2020/12/04 08:01:39;;;;;;;5.57;2.70;;;6.80;81.60;;;;;;5094497;28;20509;-91
2020/12/04 08:04:07;;;;;;;3.50;2.63;;;6.90;81.70;;;;;;5077113;28;20028;-92
2020/12/04 08:06:33;;;;;;;3.33;2.40;;;6.90;81.70;;;;;;5080986;28;20492;-93
2020/12/04 08:09:12;;;;;;;2.83;2.30;;;7.00;81.70;;;;;;5098785;28;20481;-91
2020/12/04 08:11:46;;;;;;;2.28;1.80;;;6.90;81.60;;;;;;5081712;28;20016;-94
2020/12/04 08:14:14;;;;;;;3.03;1.90;;;7.00;81.70;;;;;;5080687;28;20028;-92
2020/12/04 08:16:41;;;;;;;3.35;2.15;;;7.00;81.50;;;;;;5081980;28;20361;-93
2020/12/04 08:19:14;;;;;;;3.00;2.38;;;7.10;81.50;;;;;;5100204;28;20365;-92
2020/12/04 08:22:00;;;;;;;2.55;2.05;;;7.10;81.30;;;;;;5102344;28;20035;-93
2020/12/04 08:27:49;;;;;;;2.20;1.70;;;7.20;81.30;;;;;;5105168;28;20077;-91
2020/12/04 08:30:21;;;;;;;2.22;1.70;;;7.20;81.30;;;;;;5086598;28;20369;-91
2020/12/04 08:36:13;;;;;;;1.95;1.75;;;7.30;81.40;;;;;;5099185;28;20074;-93
2020/12/04 08:39:09;;;;;;;2.45;1.75;;;7.30;81.20;;;;;;5100201;28;20020;-94
2020/12/04 08:41:37;;;;;;;2.20;1.50;;;7.40;81.10;;;;;;5077548;28;20028;-93
2020/12/04 08:44:06;;;;;;;2.88;2.00;;;7.50;81.00;;;;;;5098717;28;20373;-92
2020/12/04 08:46:36;;;;;;;1.70;1.55;;;7.50;80.80;;;;;;5098048;28;20407;-93
2020/12/04 08:49:04;;;;;;;2.10;1.90;;;7.50;80.60;;;;;;5086055;28;20020;-94
2020/12/04 08:51:31;;;;;;;2.05;1.63;;;7.50;80.50;;;;;;5085840;28;20399;-92
2020/12/04 08:53:57;;;;;;;2.35;1.80;;;7.50;80.60;;;;;;5072146;28;20401;-91
2020/12/04 08:56:24;;;;;;;2.30;1.80;;;7.40;80.40;;;;;;5113005;28;20095;-92
2020/12/04 08:58:51;;;;;;;1.90;1.70;;;7.40;80.60;;;;;;5103023;28;20004;-92
2020/12/04 09:01:17;;;;;;;2.25;1.77;;;7.40;80.70;;;;;;5108982;28;20107;-90
2020/12/04 09:03:43;;;;;;;2.30;1.75;;;7.40;81.00;;;;;;5086479;28;20396;-93
2020/12/04 09:06:10;;;;;;;1.85;1.48;;;7.40;81.10;;;;;;5099882;28;20327;-93
2020/12/04 09:08:38;;;;;;;1.52;1.30;;;7.50;81.30;;;;;;5105590;28;20030;-92
2020/12/04 09:11:04;;;;;;;2.50;1.63;;;7.70;81.40;;;;;;5089618;28;20461;-93
2020/12/04 09:13:31;;;;;;;2.00;1.80;;;7.60;81.20;;;;;;5080859;28;20442;-90
2020/12/04 09:19:19;;;;;;;4.30;1.90;;;7.70;81.30;;;;;;5098153;28;20030;-92
2020/12/04 09:21:45;;;;;;;2.10;1.90;;;7.70;81.10;;;;;;5079399;28;20450;-91
2020/12/04 09:24:11;;;;;;;1.98;1.60;;;7.70;81.00;;;;;;5097003;28;20049;-91
2020/12/04 09:26:37;;;;;;;2.17;1.75;;;7.70;81.10;;;;;;5097592;28;20338;-92
2020/12/04 09:29:03;;;;;;;2.20;2.00;;;7.70;81.00;;;;;;5100028;28;20018;-92
2020/12/04 09:31:33;;;;;;;2.40;1.75;;;7.70;81.10;;;;;;5100126;28;20013;-89
2020/12/04 09:33:59;;;;;;;2.20;2.00;;;7.70;81.20;;;;;;5102283;28;20008;-90
2020/12/04 09:36:25;;;;;;;2.40;1.80;;;7.70;81.30;;;;;;5105948;28;20039;-91
2020/12/04 09:38:52;;;;;;;1.88;1.42;;;7.70;81.20;;;;;;5098039;28;20369;-92
2020/12/04 09:41:18;;;;;;;1.70;1.40;;;7.80;81.20;;;;;;5096601;28;20457;-92
2020/12/04 09:47:07;;;;;;;1.92;1.48;;;7.80;81.20;;;;;;5097369;28;20030;-91
2020/12/04 09:49:33;;;;;;;1.60;1.23;;;7.80;81.30;;;;;;5104893;28;20019;-93
2020/12/04 09:52:00;;;;;;;1.50;1.30;;;7.90;81.40;;;;;;5096174;28;20065;-94
2020/12/04 09:57:48;;;;;;;2.08;1.38;;;8.00;81.30;;;;;;5101330;28;20039;-91
2020/12/04 10:00:14;;;;;;;2.78;1.42;;;8.00;81.00;;;;;;5097661;28;20465;-93
2020/12/04 10:02:42;;;;;;;1.73;1.13;;;8.10;81.00;;;;;;5084678;28;20027;-90
2020/12/04 10:05:09;;;;;;;1.33;1.23;;;8.10;80.80;;;;;;5113733;28;20437;-95
2020/12/04 10:07:38;;;;;;;1.27;1.10;;;8.10;80.70;;;;;;5111757;28;20004;-92
2020/12/04 10:13:27;;;;;;;1.27;0.80;;;8.20;80.30;;;;;;5098966;28;20487;-94
2020/12/04 10:16:04;;;;;;;1.20;0.95;;;8.20;80.10;;;;;;5098798;28;20403;-92
2020/12/04 10:18:33;;;;;;;1.05;0.90;;;8.20;80.10;;;;;;5079406;28;20373;-93
2020/12/04 10:20:59;;;;;;;1.02;0.93;;;8.30;79.90;;;;;;5096559;28;20365;-96
2020/12/04 10:23:25;;;;;;;1.77;1.00;;;8.30;79.30;;;;;;5078516;28;20358;-95
2020/12/04 10:29:20;;;;;;;0.90;0.85;;;8.30;77.80;;;;;;5200325;22;20071;-92
2020/12/04 10:35:07;;;;;;;0.70;0.70;;;8.40;76.70;;;;;;5096422;28;20039;-93
2020/12/04 10:37:33;;;;;;;0.80;0.70;;;8.40;76.30;;;;;;5096542;28;20023;-92
2020/12/04 10:39:59;;;;;;;1.13;0.80;;;8.40;76.10;;;;;;5104247;28;20453;-94
2020/12/04 10:42:25;;;;;;;0.98;0.70;;;8.40;75.90;;;;;;5096518;28;20020;-91
2020/12/04 10:44:51;;;;;;;0.90;0.70;;;8.40;75.60;;;;;;5095419;28;20034;-92
2020/12/04 10:47:17;;;;;;;1.02;0.90;;;8.40;75.30;;;;;;5095082;28;20483;-90
2020/12/04 10:49:43;;;;;;;1.17;0.70;;;8.50;75.30;;;;;;5095666;28;20012;-93
2020/12/04 10:55:31;;;;;;;0.70;0.70;;;8.50;74.60;;;;;;5098005;28;20053;-95
2020/12/04 10:57:57;;;;;;;2.20;0.75;;;8.50;74.00;;;;;;5078127;28;20020;-95
2020/12/04 11:00:23;;;;;;;0.50;0.50;;;8.50;73.90;;;;;;5095672;28;20105;-93
2020/12/04 11:06:11;;;;;;;1.77;0.70;;;8.50;73.50;;;;;;5103032;28;20026;-91
2020/12/04 11:08:37;;;;;;;0.65;0.65;;;8.50;71.60;;;;;;5097181;28;20341;-93
2020/12/04 11:11:03;;;;;;;0.95;0.90;;;8.60;71.50;;;;;;5095208;28;20019;-92
2020/12/04 11:13:29;;;;;;;1.08;0.60;;;8.60;71.40;;;;;;5077291;28;20488;-92
2020/12/04 11:15:55;;;;;;;1.10;0.60;;;8.60;70.70;;;;;;5076960;28;20013;-93
2020/12/04 11:18:21;;;;;;;0.98;0.50;;;8.60;70.60;;;;;;5077065;28;20360;-92
2020/12/04 11:24:10;;;;;;;0.88;0.77;;;8.60;70.00;;;;;;5095125;28;20046;-93
2020/12/04 11:26:37;;;;;;;0.75;0.63;;;8.50;68.90;;;;;;5076613;28;20365;-93
2020/12/04 11:32:25;;;;;;;0.70;0.60;;;8.60;68.50;;;;;;5097968;28;20050;-92
2020/12/04 11:38:14;;;;;;;0.63;0.63;;;8.80;68.90;;;;;;5094969;28;20027;-94
2020/12/04 11:40:41;;;;;;;1.10;0.63;;;8.80;68.80;;;;;;5101707;28;20425;-94
2020/12/04 11:43:07;;;;;;;0.63;0.63;;;8.80;68.40;;;;;;5085883;28;20389;-92
2020/12/04 11:45:34;;;;;;;1.35;0.75;;;9.00;68.90;;;;;;5103682;28;20024;-91
2020/12/04 11:51:23;;;;;;;1.13;0.60;;;8.90;67.00;;;;;;5107450;28;20039;-92
2020/12/04 11:53:50;;;;;;;0.60;0.60;;;8.90;67.70;;;;;;5109527;28;20055;-90
2020/12/04 11:56:18;;;;;;;0.73;0.60;;;8.90;68.20;;;;;;5119154;28;20015;-90
2020/12/04 12:02:07;;;;;;;0.70;0.70;;;9.00;67.90;;;;;;5102552;28;20035;-91
2020/12/04 12:07:55;;;;;;;1.50;0.70;;;9.10;67.70;;;;;;5107067;28;20038;-92
2020/12/04 12:10:21;;;;;;;0.65;0.65;;;9.10;67.90;;;;;;5105116;28;20441;-93
2020/12/04 12:12:47;;;;;;;1.65;0.93;;;9.10;68.10;;;;;;5104462;28;20112;-91
2020/12/04 12:18:35;;;;;;;0.70;0.70;;;9.20;68.60;;;;;;5100683;28;20047;-90
2020/12/04 12:21:01;;;;;;;0.70;0.60;;;9.20;68.10;;;;;;5100214;28;20028;-91
2020/12/04 12:23:27;;;;;;;1.30;0.82;;;9.10;67.80;;;;;;5099520;28;20490;-91
2020/12/04 12:25:53;;;;;;;0.73;0.70;;;9.10;67.40;;;;;;5085000;28;20024;-93
2020/12/04 12:28:19;;;;;;;0.43;0.43;;;9.10;67.60;;;;;;5099435;28;20465;-91
2020/12/04 12:30:44;;;;;;;0.52;0.52;;;9.20;68.10;;;;;;5098084;28;20089;-91
2020/12/04 12:33:11;;;;;;;0.57;0.57;;;9.20;68.40;;;;;;5098193;28;20035;-88
2020/12/04 12:38:58;;;;;;;1.00;0.80;;;9.20;68.40;;;;;;5099852;28;20019;-94
2020/12/04 12:41:25;;;;;;;0.70;0.60;;;9.10;67.90;;;;;;5097730;28;20020;-92
2020/12/04 12:43:51;;;;;;;2.15;0.90;;;9.10;68.30;;;;;;5098308;28;20358;-90
2020/12/04 12:46:16;;;;;;;0.98;0.70;;;9.00;67.80;;;;;;5098339;28;20019;-90
2020/12/04 12:48:43;;;;;;;1.75;0.68;;;9.00;67.80;;;;;;5079155;28;20118;-93
2020/12/04 12:51:09;;;;;;;0.60;0.60;;;9.00;67.70;;;;;;5096746;28;20358;-94
2020/12/04 12:53:35;;;;;;;1.08;0.60;;;9.00;67.70;;;;;;5079373;28;20541;-95
2020/12/04 12:56:02;;;;;;;1.17;0.70;;;8.90;67.50;;;;;;5080763;28;20526;-96
2020/12/04 12:58:29;;;;;;;0.60;0.60;;;8.90;67.10;;;;;;5085777;28;20452;-96
2020/12/04 13:04:17;;;;;;;0.70;0.70;;;8.90;66.60;;;;;;5103509;28;20101;-96
2020/12/04 13:06:45;;;;;;;1.23;0.73;;;8.90;66.30;;;;;;5215987;22;20043;-96
2020/12/04 13:09:12;;;;;;;0.65;0.65;;;8.80;66.30;;;;;;5088135;28;20358;-96
2020/12/04 13:17:36;;;;;;;0.50;0.50;;;8.90;66.50;;;;;;6039515;22;20060;-96
2020/12/04 13:22:38;;;;;;;0.88;0.80;;;8.90;66.50;;;;;;5254711;22;20048;-94
2020/12/04 13:25:04;;;;;;;0.63;0.55;;;8.80;65.80;;;;;;5116858;28;20080;-95
2020/12/04 13:27:30;;;;;;;0.57;0.57;;;8.90;66.30;;;;;;5101404;28;20012;-95
2020/12/04 13:29:57;;;;;;;0.88;0.60;;;8.90;66.50;;;;;;5080600;28;20038;-96
2020/12/04 13:32:23;;;;;;;0.70;0.60;;;8.90;66.20;;;;;;5098106;28;20373;-96
2020/12/04 13:34:49;;;;;;;0.73;0.60;;;8.90;66.10;;;;;;5097851;28;20043;-95
2020/12/04 13:37:16;;;;;;;0.63;0.63;;;8.90;66.30;;;;;;5098483;28;20453;-96
2020/12/04 13:39:41;;;;;;;0.60;0.60;;;8.90;66.20;;;;;;5099154;28;20016;-94
2020/12/04 13:42:07;;;;;;;1.17;0.75;;;8.90;66.00;;;;;;5097027;28;20024;-95
2020/12/04 13:47:59;;;;;;;1.17;0.80;;;8.90;66.00;;;;;;5098086;28;20035;-94
2020/12/04 13:50:26;;;;;;;2.50;0.85;;;8.90;65.40;;;;;;5096914;28;20043;-95
2020/12/04 13:52:52;;;;;;;0.57;0.57;;;8.90;65.90;;;;;;5079301;28;20024;-93
2020/12/04 13:58:40;;;;;;;1.75;0.95;;;8.90;66.10;;;;;;5100148;28;20066;-93
2020/12/04 14:04:28;;;;;;;0.98;0.55;;;8.80;65.90;;;;;;5098301;28;20104;-91
2020/12/04 14:06:58;;;;;;;0.68;0.68;;;8.80;66.50;;;;;;5081309;28;20102;-92
2020/12/04 14:09:24;;;;;;;1.48;0.73;;;8.80;66.70;;;;;;5080739;28;20465;-92
2020/12/04 14:15:13;;;;;;;1.15;0.80;;;8.80;66.90;;;;;;5100179;28;20027;-93
2020/12/04 14:17:39;;;;;;;0.65;0.52;;;8.80;66.70;;;;;;5105181;28;20102;-94
2020/12/04 14:23:28;;;;;;;1.05;0.70;;;8.80;67.10;;;;;;5099784;28;20039;-92
2020/12/04 14:25:54;;;;;;;0.70;0.70;;;8.70;66.70;;;;;;5081357;28;20554;-93
2020/12/04 14:31:44;;;;;;;1.17;0.80;;;8.70;67.10;;;;;;5101492;28;20039;-94
2020/12/04 14:34:11;;;;;;;1.88;0.77;;;8.80;67.10;;;;;;5100773;28;20015;-93
2020/12/04 14:36:37;;;;;;;1.00;0.80;;;8.80;67.90;;;;;;5081343;28;20530;-95
2020/12/04 14:39:07;;;;;;;1.75;0.85;;;8.90;67.40;;;;;;5080228;28;20463;-96
2020/12/04 14:41:36;;;;;;;0.73;0.65;;;8.90;67.00;;;;;;5087805;28;20046;-93
2020/12/04 14:44:04;;;;;;;1.02;0.60;;;8.90;67.50;;;;;;5101484;28;20024;-93
2020/12/04 14:50:09;;;;;;;1.85;0.75;;;8.90;68.00;;;;;;5101104;28;20035;-94
2020/12/04 14:52:36;;;;;;;1.83;0.70;;;8.80;68.00;;;;;;5115376;28;20004;-94
2020/12/04 14:55:11;;;;;;;1.95;0.98;;;8.80;68.20;;;;;;5118576;28;20088;-91
2020/12/04 14:57:47;;;;;;;2.15;0.90;;;8.80;68.00;;;;;;5104907;28;20483;-93
2020/12/04 15:10:23;;;;;;;2.30;0.70;;;8.60;68.50;;;;;;5024977;28;20032;-91